Flight Track Log - Related Links

Times and Time Zones

All times are in EDT time to prevent confusion due to time zone crossing. See the N4846L flight status page for this flight to view local times or setup timezone preferences in your user account.

Time Position Orientation Groundspeed Altitude Reporting Facility
EDT Latitude Longitude Course Direction KTS MPH feet Rate Location/Type
Sun 11:00:25 AM 38.3350 -75.2081 276° West 89 102 2,700  Level Washington Center
Sun 11:01:26 AM 38.3372 -75.2344 276° West 87 100 3,100 397 Climbing Washington Center
Sun 11:02:26 AM 38.3394 -75.2661 275° West 80 92 3,500 458 Climbing Washington Center
Sun 11:03:24 AM 38.3394 -75.2953 270° West 78 90 4,000 446 Climbing Washington Center
Sun 11:04:27 AM 38.3417 -75.3192 277° West 76 87 4,400 242 Climbing Washington Center
Sun 11:05:28 AM 38.3439 -75.3481 276° West 82 94 4,500 98 Climbing Washington Center
Sun 11:06:29 AM 38.3503 -75.3772 286° West 84 97 4,600  Climbing Washington Center
Sun 11:07:29 AM 38.3544 -75.4117 279° West 91 105 4,500 -50 Descending Washington Center
Sun 11:08:30 AM 38.3564 -75.4433 274° West 90 104 4,500  Level Washington Center
Sun 11:09:31 AM 38.3586 -75.4700 276° West 79 91 4,500 -1,721 Level Washington Center
Sun 11:10:32 AM 39.0667 -76.7833 305° West 94 108 1,000 -1,748 Descending Potomac TRACON
Sun 11:11:38 AM 39.0667 -76.7500 90° East 99 114 800 1,800 Descending Potomac TRACON
Sun 11:12:32 AM 38.3733 -75.5625 126° Southeast 89 102 4,600 2,000 Climbing Washington Center
Sun 11:13:32 AM 38.3753 -75.5944 274° West 90 104 4,600  Level Washington Center
Sun 11:14:27 AM 38.3794 -75.6208 281° West 89 102 4,600 -1,748 Level Washington Center
Sun 11:15:39 AM 39.0667 -76.7667 308° West 106 122 900 -1,857 Descending Potomac TRACON
Sun 11:16:33 AM 39.0833 -76.7333 57° Northeast 104 120 700 1,964 Descending Potomac TRACON
Sun 11:17:29 AM 38.3858 -75.7161 131° Southeast 88 101 4,500 2,017 Climbing Washington Center
Sun 11:18:29 AM 38.3942 -75.7453 290° West 92 106 4,600 -50 Climbing Washington Center
Sun 11:19:29 AM 38.4003 -75.7772 284° West 90 104 4,400 -50 Descending Washington Center
Sun 11:20:30 AM 38.4064 -75.8117 283° West 87 100 4,500 49 Climbing Washington Center
Sun 11:21:31 AM 38.4064 -75.8408 270° West 87 100 4,500  Level Washington Center
Sun 11:22:31 AM 38.4125 -75.8725 284° West 90 104 4,500  Level Washington Center
Sun 11:23:32 AM 38.4167 -75.9017 280° West 92 106 4,500 -1,742 Level Washington Center
Sun 11:24:35 AM 39.0667 -76.7667 314° West 112 129 900 -1,839 Descending Potomac TRACON
Sun 11:25:36 AM 39.0833 -76.7333 57° Northeast 92 106 700 1,742 Descending Potomac TRACON
Sun 11:26:39 AM 38.4247 -76.0053 139° Southeast 88 101 4,500 1,810 Climbing Washington Center
Sun 11:27:42 AM 38.4289 -76.0369 280° West 92 106 4,500 48 Level Washington Center
Sun 11:28:43 AM 38.4350 -76.0714 283° West 94 108 4,600 50 Climbing Washington Center
Sun 11:29:43 AM 38.4411 -76.1006 285° West 92 106 4,600 -50 Level Washington Center
Sun 11:30:44 AM 38.4450 -76.1350 278° West 96 110 4,500 -50 Descending Washington Center
Sun 11:31:42 AM 38.4511 -76.1697 283° West 92 106 4,500  Level Washington Center
Sun 11:32:43 AM 38.4572 -76.1989 285° West 91 105 4,500  Level Washington Center
Sun 11:34:50 AM 38.4833 -76.2667 296° West 93 107 4,500 -33 Level Potomac TRACON
Sun 11:35:44 AM 38.4833 -76.2833 270° West 95 109 4,400 -53 Descending Potomac TRACON
Sun 11:36:44 AM 38.4833 -76.3167 270° West 89 102 4,400 -100 Level Potomac TRACON
Sun 11:37:44 AM 38.4833 -76.3500 270° West 91 105 4,200 -300 Descending Potomac TRACON
Sun 11:38:44 AM 38.5000 -76.3833 303° West 98 113 3,800 -400 Descending Potomac TRACON
Sun 11:39:44 AM 38.5000 -76.4167 270° West 100 115 3,400 -350 Descending Potomac TRACON
Sun 11:40:44 AM 38.5000 -76.4500 270° West 101 116 3,100 -150 Descending Potomac TRACON
Sun 11:41:44 AM 38.5167 -76.4833 303° West 93 107 3,100  Level Potomac TRACON
Sun 11:42:44 AM 38.5167 -76.5167 270° West 90 104 3,100  Level Potomac TRACON
Sun 11:43:39 AM 38.5167 -76.5500 270° West 85 98 3,100  Level Potomac TRACON
Sun 11:44:45 AM 38.5167 -76.5833 270° West 88 101 3,100 -48 Level Potomac TRACON
Sun 11:45:45 AM 38.5167 -76.6167 270° West 90 104 3,000 -53 Descending Potomac TRACON
Sun 11:46:39 AM 38.5167 -76.6333 270° West 91 105 3,000 52 Level Potomac TRACON
Sun 11:47:40 AM 38.5167 -76.6667 270° West 91 105 3,100  Climbing Potomac TRACON
Sun 11:48:40 AM 38.5333 -76.7000 303° West 105 121 3,000 -200 Descending Potomac TRACON
Sun 11:49:40 AM 38.5333 -76.7333 270° West 94 108 2,700 -400 Descending Potomac TRACON
Sun 11:50:40 AM 38.5333 -76.7667 270° West 87 100 2,200 -200 Descending Potomac TRACON
Sun 11:51:40 AM 38.5333 -76.8000 270° West 89 102 2,300 48 Climbing Potomac TRACON
Sun 11:52:46 AM 38.5500 -76.8333 303° West 94 108 2,300  Level Potomac TRACON
Sun 11:53:47 AM 38.5500 -76.8667 270° West 94 108 2,300  Level Potomac TRACON
Sun 11:54:47 AM 38.5667 -76.9000 303° West 94 108 2,300  Level Potomac TRACON
Sun 11:55:47 AM 38.5667 -76.9333 270° West 93 107 2,300  Level Potomac TRACON
Sun 11:56:47 AM 38.5833 -76.9667 303° West 95 109 2,300 -100 Level Potomac TRACON
Sun 11:57:47 AM 38.5833 -77.0000 270° West 100 115 2,100 -104 Descending Potomac TRACON
Sun 11:58:42 AM 38.6000 -77.0167 322° Northwest 97 112 2,100  Level Potomac TRACON
Sun 11:59:42 AM 38.6000 -77.0500 270° West 90 104 2,100 50 Level Potomac TRACON
Sun 12:00:42 PM 38.6000 -77.0833 270° West 82 94 2,200 50 Climbing Potomac TRACON
Sun 12:01:42 PM 38.6000 -77.1167 270° West 94 108 2,200  Level Potomac TRACON
Sun 12:02:43 PM 38.6000 -77.1500 270° West 95 109 2,200  Level Potomac TRACON
Sun 12:03:43 PM 38.6000 -77.1833 270° West 110 127 2,200 -50 Level Potomac TRACON
Sun 12:04:43 PM 38.6000 -77.2167 270° West 105 121 2,100 -100 Descending Potomac TRACON
Sun 12:05:43 PM 38.6167 -77.2500 303° West 105 121 2,000 50 Descending Potomac TRACON
Sun 12:06:44 PM 38.6167 -77.2833 270° West 103 119 2,200 99 Climbing Potomac TRACON
Sun 12:07:44 PM 38.6333 -77.3167 303° West 99 114 2,200  Level Potomac TRACON
Sun 12:08:44 PM 38.6500 -77.3500 303° West 105 121 2,200  Level Potomac TRACON
Sun 12:09:45 PM 38.6667 -77.3833 303° West 113 130 2,200 -50 Level Potomac TRACON
Sun 12:10:45 PM 38.6833 -77.4167 303° West 110 127 2,100 -250 Descending Potomac TRACON
Sun 12:11:45 PM 38.7000 -77.4500 303° West 103 119 1,700 -397 Descending Potomac TRACON
Sun 12:12:46 PM 38.7167 -77.4833 303° West 97 112 1,300 -298 Descending Potomac TRACON
Sun 12:13:46 PM 38.7333 -77.5000 322° Northwest 103 119 1,100 -250 Descending Potomac TRACON
Sun 12:14:46 PM 38.7500 -77.5167 322° Northwest 104 120 800 -300 Descending Potomac TRACON
Sun 12:16:00 PM 38.7279 -77.5056 159° South  Level FlightAware Approximate

Login

Don't have an account? Register now (free) for customized features, flight alerts, and more!